Time;durP1;ratioP1;P1;durP2;ratioP2;P2;SDS_P1;SDS_P2;PMS_P1;PMS_P2;Temp;Humidity;BMP_temperature;BMP_pressure;BME280_temperature;BME280_humidity;BME280_pressure;Samples;Min_cycle;Max_cycle;Signal;HPM_P1;HPM_P2
2023/05/14 00:01:53;;;;;;;13.20;7.90;;;;;;;11.17;100.00;101734.35;105681;1254;75027;-52
2023/05/14 00:04:20;;;;;;;14.10;5.60;;;;;;;11.16;100.00;101734.88;105763;1253;65821;-50
2023/05/14 00:06:47;;;;;;;11.70;6.60;;;;;;;11.16;100.00;101738.50;105667;1254;75172;-50
2023/05/14 00:09:14;;;;;;;9.60;5.30;;;;;;;11.16;100.00;101738.67;105656;1254;63486;-50
2023/05/14 00:11:41;;;;;;;7.70;4.50;;;;;;;11.16;100.00;101743.33;105696;1254;62569;-50
2023/05/14 00:14:08;;;;;;;11.60;5.40;;;;;;;11.17;100.00;101749.04;105667;1258;76658;-50
2023/05/14 00:16:35;;;;;;;5.90;4.60;;;;;;;11.18;100.00;101750.06;105665;1259;66187;-50
2023/05/14 00:19:02;;;;;;;10.70;5.50;;;;;;;11.20;100.00;101752.83;105637;1254;74120;-50
2023/05/14 00:21:30;;;;;;;9.60;5.00;;;;;;;11.22;100.00;101752.48;105709;1254;61877;-50
2023/05/14 00:23:57;;;;;;;7.00;4.60;;;;;;;11.24;100.00;101751.11;105687;1254;60477;-51
2023/05/14 00:26:24;;;;;;;7.80;4.30;;;;;;;11.27;100.00;101754.56;105668;1259;76315;-51
2023/05/14 00:28:51;;;;;;;13.20;4.30;;;;;;;11.31;100.00;101754.05;105696;1254;66199;-51
2023/05/14 00:31:18;;;;;;;8.70;4.10;;;;;;;11.35;100.00;101748.85;105660;1254;75207;-51
2023/05/14 00:33:45;;;;;;;7.10;4.30;;;;;;;11.37;100.00;101746.61;105689;1259;61794;-51
2023/05/14 00:36:12;;;;;;;8.30;4.40;;;;;;;11.40;100.00;101747.82;105691;1259;61755;-51
2023/05/14 00:38:39;;;;;;;6.90;4.20;;;;;;;11.43;100.00;101751.61;105691;1259;76563;-51
2023/05/14 00:41:06;;;;;;;12.70;4.10;;;;;;;11.48;100.00;101751.60;105674;1254;65697;-51
2023/05/14 00:43:34;;;;;;;8.70;4.10;;;;;;;11.53;100.00;101756.44;105671;1254;74323;-51
2023/05/14 00:46:01;;;;;;;9.10;4.70;;;;;;;11.54;100.00;101759.37;105714;1254;62454;-51
2023/05/14 00:48:28;;;;;;;9.20;4.90;;;;;;;11.55;100.00;101758.85;105688;1254;62794;-50
2023/05/14 00:50:56;;;;;;;5.50;4.20;;;;;;;11.56;100.00;101756.77;105680;1254;75611;-51
2023/05/14 00:53:25;;;;;;;9.80;4.50;;;;;;;11.58;100.00;101752.11;105686;1254;67428;-51
2023/05/14 00:55:52;;;;;;;7.40;4.90;;;;;;;11.58;100.00;101752.97;105677;1254;75026;-51
2023/05/14 00:58:19;;;;;;;10.60;4.10;;;;;;;11.59;100.00;101754.70;105687;1254;63548;-51
2023/05/14 01:00:46;;;;;;;10.20;4.80;;;;;;;11.59;100.00;101756.77;105636;1260;61675;-51
2023/05/14 01:03:14;;;;;;;9.50;3.90;;;;;;;11.59;100.00;101751.23;105737;1254;74956;-51
2023/05/14 01:06:17;;;;;;;6.80;4.10;;;;;;;11.60;100.00;101749.16;105747;1254;65799;-51
2023/05/14 01:09:06;;;;;;;4.90;4.20;;;;;;;11.64;100.00;101751.05;105654;1259;73161;-50
2023/05/14 01:11:58;;;;;;;12.20;4.50;;;;;;;11.67;100.00;101762.46;105675;1253;64550;-52
2023/05/14 01:15:07;;;;;;;8.20;4.70;;;;;;;11.68;100.00;101770.93;105723;1254;62832;-53
2023/05/14 01:17:40;;;;;;;9.90;5.70;;;;;;;11.68;100.00;101773.88;105622;1254;75027;-54
2023/05/14 01:20:08;;;;;;;10.00;6.20;;;;;;;11.65;100.00;101769.55;105720;1258;67099;-51
2023/05/14 01:22:35;;;;;;;8.40;6.20;;;;;;;11.62;100.00;101770.42;105706;1259;75130;-53
2023/05/14 01:25:04;;;;;;;9.60;6.20;;;;;;;11.62;100.00;101767.14;105701;1254;65017;-54
2023/05/14 01:27:35;;;;;;;12.70;7.50;;;;;;;11.62;100.00;101764.56;105712;1258;61504;-54
2023/05/14 01:30:05;;;;;;;7.70;5.90;;;;;;;11.65;100.00;101767.83;105683;1254;74015;-52
2023/05/14 01:32:32;;;;;;;6.30;5.00;;;;;;;11.69;100.00;101767.64;105702;1254;65987;-52
2023/05/14 01:34:59;;;;;;;7.80;4.70;;;;;;;11.73;100.00;101769.36;105651;1254;74623;-52
2023/05/14 01:37:27;;;;;;;6.10;4.60;;;;;;;11.77;100.00;101765.73;105672;1253;64493;-52
2023/05/14 01:39:54;;;;;;;7.60;4.30;;;;;;;11.82;100.00;101762.59;105745;1259;61490;-52
2023/05/14 01:42:22;;;;;;;8.10;4.80;;;;;;;11.86;100.00;101762.58;105701;1255;76270;-52
2023/05/14 01:44:49;;;;;;;6.40;5.50;;;;;;;11.90;100.00;101769.84;105646;1259;67128;-53
2023/05/14 01:47:16;;;;;;;9.30;5.90;;;;;;;11.93;100.00;101770.52;105691;1257;74281;-53
2023/05/14 01:49:43;;;;;;;12.30;5.40;;;;;;;11.90;100.00;101771.56;105651;1254;62311;-54
2023/05/14 01:52:10;;;;;;;7.00;4.10;;;;;;;11.89;100.00;101764.83;105683;1259;62592;-53
2023/05/14 01:54:37;;;;;;;10.70;3.90;;;;;;;11.91;100.00;101765.34;105682;1258;76426;-53
2023/05/14 01:57:04;;;;;;;5.40;3.40;;;;;;;11.95;100.00;101763.59;105704;1254;67424;-53
2023/05/14 01:59:31;;;;;;;6.50;3.20;;;;;;;11.96;100.00;101758.40;105641;1258;73327;-52
2023/05/14 02:01:58;;;;;;;13.60;4.80;;;;;;;11.98;100.00;101758.21;105639;1258;63368;-52
2023/05/14 02:04:25;;;;;;;12.60;3.90;;;;;;;12.00;100.00;101755.11;105647;1253;62773;-52
2023/05/14 02:06:53;;;;;;;4.30;3.10;;;;;;;11.97;100.00;101753.02;105697;1258;76613;-52
2023/05/14 02:09:23;;;;;;;7.20;3.30;;;;;;;11.94;100.00;101746.64;105695;1254;67667;-52
2023/05/14 02:11:50;;;;;;;12.90;4.10;;;;;;;11.92;100.00;101750.63;105694;1257;75555;-52
2023/05/14 02:14:17;;;;;;;5.70;3.80;;;;;;;11.90;100.00;101750.81;105668;1254;63343;-53
2023/05/14 02:16:44;;;;;;;3.90;3.40;;;;;;;11.86;100.00;101749.27;105656;1254;61134;-53
2023/05/14 02:19:11;;;;;;;3.60;3.10;;;;;;;11.79;100.00;101745.66;105605;1259;76575;-52
2023/05/14 02:21:38;;;;;;;9.30;3.30;;;;;;;11.75;100.00;101743.77;105677;1255;66301;-53
2023/05/14 02:24:05;;;;;;;5.80;3.50;;;;;;;11.73;100.00;101740.47;105766;1254;72972;-53
2023/05/14 02:26:32;;;;;;;7.30;3.30;;;;;;;11.73;100.00;101736.34;105669;1257;63641;-52
2023/05/14 02:28:59;;;;;;;6.40;3.10;;;;;;;11.74;100.00;101730.80;105666;1254;61594;-52
2023/05/14 02:31:26;;;;;;;4.90;2.80;;;;;;;11.72;100.00;101719.39;105684;1259;76540;-52
2023/05/14 02:33:53;;;;;;;4.90;2.80;;;;;;;11.73;100.00;101708.67;105643;1254;66273;-52
2023/05/14 02:36:20;;;;;;;3.70;3.30;;;;;;;11.73;100.00;101697.94;105702;1254;74485;-52
2023/05/14 02:38:47;;;;;;;5.20;3.20;;;;;;;11.71;100.00;101686.02;105666;1254;64507;-52
2023/05/14 02:41:14;;;;;;;5.10;3.10;;;;;;;11.69;100.00;101669.77;105677;1254;62787;-52
2023/05/14 02:43:41;;;;;;;5.40;3.10;;;;;;;11.67;100.00;101658.55;105675;1258;76812;-53
2023/05/14 02:46:08;;;;;;;6.60;3.10;;;;;;;11.62;100.00;101647.66;105640;1254;66790;-53
2023/05/14 02:48:35;;;;;;;5.90;3.30;;;;;;;11.58;100.00;101644.05;105690;1258;75213;-54
2023/05/14 02:51:02;;;;;;;6.50;3.50;;;;;;;11.55;100.00;101647.52;105664;1254;63894;-54
2023/05/14 02:53:29;;;;;;;4.10;3.80;;;;;;;11.52;100.00;101655.84;105689;1259;61624;-54
2023/05/14 02:55:57;;;;;;;4.40;3.10;;;;;;;11.51;100.00;101669.84;105423;1258;76612;-53
2023/05/14 02:58:24;;;;;;;6.70;3.30;;;;;;;11.49;100.00;101679.36;105660;1259;67393;-55
2023/05/14 03:00:54;;;;;;;13.00;3.50;;;;;;;11.48;100.00;101690.75;105721;1254;75568;-53
2023/05/14 03:03:22;;;;;;;10.00;3.40;;;;;;;11.46;100.00;101695.44;105685;1253;64635;-53
2023/05/14 03:05:50;;;;;;;8.80;3.50;;;;;;;11.46;100.00;101698.36;105691;1254;62467;-54
2023/05/14 03:08:17;;;;;;;7.30;2.80;;;;;;;11.49;100.00;101708.73;105700;1259;75048;-54
2023/05/14 03:10:44;;;;;;;8.40;3.70;;;;;;;11.54;100.00;101716.16;105688;1254;66167;-55
2023/05/14 03:13:13;;;;;;;5.30;3.40;;;;;;;11.58;100.00;101719.43;105736;1254;75070;-54
2023/05/14 03:15:40;;;;;;;10.40;3.30;;;;;;;11.58;100.00;101730.33;105693;1254;64929;-57
2023/05/14 03:18:08;;;;;;;5.10;3.00;;;;;;;11.56;100.00;101735.67;105681;1254;62588;-55
2023/05/14 03:20:35;;;;;;;8.80;2.90;;;;;;;11.55;100.00;101739.67;105644;1254;75394;-52
2023/05/14 03:23:02;;;;;;;3.80;2.90;;;;;;;11.56;100.00;101745.20;105713;1254;67497;-53
2023/05/14 03:25:29;;;;;;;4.40;3.50;;;;;;;11.57;100.00;101752.27;105663;1257;75682;-56
2023/05/14 03:27:57;;;;;;;5.10;3.50;;;;;;;11.61;100.00;101754.34;105691;1254;63005;-54
2023/05/14 03:30:24;;;;;;;4.90;3.50;;;;;;;11.67;100.00;101758.30;105683;1259;63294;-53
2023/05/14 03:32:52;;;;;;;4.10;3.80;;;;;;;11.76;100.00;101762.09;105705;1253;74954;-53
2023/05/14 03:35:19;;;;;;;7.60;4.30;;;;;;;11.87;100.00;101766.56;105692;1254;67127;-53
2023/05/14 03:37:46;;;;;;;5.50;4.10;;;;;;;11.98;100.00;101771.21;105677;1258;74327;-54
2023/05/14 03:40:13;;;;;;;7.30;4.70;;;;;;;12.11;100.00;101770.84;105675;1254;62535;-54
2023/05/14 03:42:42;;;;;;;7.90;5.60;;;;;;;12.31;100.00;101773.86;105671;1259;62277;-53
2023/05/14 03:45:09;;;;;;;10.70;4.70;;;;;;;12.49;100.00;101771.52;105662;1259;76715;-53
2023/05/14 03:47:36;;;;;;;16.00;5.70;;;;;;;12.67;100.00;101776.96;105732;1259;66262;-54
2023/05/14 03:50:06;;;;;;;11.00;5.10;;;;;;;12.92;100.00;101781.84;105690;1258;75572;-53
2023/05/14 03:52:32;;;;;;;33.00;6.70;;;;;;;13.23;100.00;101775.52;105722;1259;61917;-55
2023/05/14 03:55:01;;;;;;;16.20;6.10;;;;;;;13.56;100.00;101766.39;105674;1259;61524;-52
2023/05/14 03:57:28;;;;;;;22.90;5.70;;;;;;;13.88;100.00;101734.67;105664;1254;74378;-54
2023/05/14 03:59:55;;;;;;;28.50;5.90;;;;;;;14.19;100.00;101679.78;105798;1254;67507;-54
2023/05/14 04:02:22;;;;;;;38.10;5.50;;;;;;;14.48;100.00;101544.75;105634;1254;74091;-53
2023/05/14 04:04:49;;;;;;;22.00;5.00;;;;;;;14.73;100.00;101329.77;105698;1255;62119;-52
2023/05/14 04:07:18;;;;;;;31.90;5.60;;;;;;;14.93;100.00;101149.14;105736;1255;63096;-52
2023/05/14 04:09:45;;;;;;;27.00;5.80;;;;;;;15.12;100.00;101016.35;105669;1259;76584;-52
2023/05/14 04:12:13;;;;;;;38.70;6.30;;;;;;;15.32;100.00;100973.20;105658;1254;66034;-52
2023/05/14 04:14:40;;;;;;;42.70;7.70;;;;;;;15.52;100.00;100973.11;105653;1259;74975;-52
2023/05/14 04:17:07;;;;;;;49.10;8.40;;;;;;;15.71;100.00;100992.20;105640;1257;62463;-52
2023/05/14 04:19:33;;;;;;;44.60;7.10;;;;;;;15.89;100.00;101014.98;105689;1254;62632;-53
2023/05/14 04:22:02;;;;;;;38.40;8.40;;;;;;;16.05;100.00;101040.41;105702;1259;75593;-53
2023/05/14 04:24:29;;;;;;;41.30;8.10;;;;;;;16.22;100.00;101063.38;105700;1254;66824;-52
2023/05/14 04:26:56;;;;;;;27.00;8.10;;;;;;;16.38;100.00;101086.54;105711;1254;75437;-52
2023/05/14 04:29:23;;;;;;;44.90;8.20;;;;;;;16.54;100.00;101114.96;105643;1254;63188;-52
2023/05/14 04:31:49;;;;;;;50.20;8.50;;;;;;;16.64;100.00;101147.02;105682;1254;62793;-52
2023/05/14 04:34:16;;;;;;;47.20;8.00;;;;;;;16.71;100.00;101179.56;105685;1253;75394;-52
2023/05/14 04:36:43;;;;;;;47.90;7.50;;;;;;;16.77;100.00;101195.21;105707;1254;67543;-52
2023/05/14 04:39:11;;;;;;;46.20;7.70;;;;;;;16.85;100.00;101210.13;105663;1254;75263;-52
2023/05/14 04:41:38;;;;;;;31.20;7.20;;;;;;;16.97;100.00;101212.89;105632;1254;62858;-53
2023/05/14 04:44:05;;;;;;;48.80;7.90;;;;;;;17.06;100.00;101241.18;105683;1254;62570;-54
2023/05/14 04:46:32;;;;;;;43.90;7.30;;;;;;;17.07;100.00;101263.86;105748;1259;76182;-53
2023/05/14 04:49:00;;;;;;;53.90;9.30;;;;;;;17.11;100.00;101259.16;105693;1254;67851;-52
2023/05/14 04:51:27;;;;;;;26.40;8.10;;;;;;;17.17;100.00;101256.52;105692;1254;74843;-52
2023/05/14 04:53:54;;;;;;;21.30;7.50;;;;;;;17.22;100.00;101270.31;105685;1254;61980;-53
2023/05/14 04:56:21;;;;;;;36.70;8.60;;;;;;;17.23;100.00;101291.04;105712;1254;61907;-52
2023/05/14 04:58:48;;;;;;;22.60;9.00;;;;;;;17.27;100.00;101295.08;105650;1259;74151;-53
2023/05/14 05:01:15;;;;;;;21.10;7.50;;;;;;;17.38;100.00;101295.43;105680;1254;67032;-53
2023/05/14 05:03:42;;;;;;;20.00;7.40;;;;;;;17.48;100.00;101298.05;105756;1254;73739;-53
2023/05/14 05:06:09;;;;;;;22.60;6.90;;;;;;;17.55;100.00;101306.02;105700;1254;61568;-52
2023/05/14 05:08:36;;;;;;;15.30;6.40;;;;;;;17.61;100.00;101316.49;105680;1254;63111;-52
2023/05/14 05:11:04;;;;;;;45.90;7.90;;;;;;;17.65;100.00;101316.15;105819;1259;76301;-53
2023/05/14 05:13:31;;;;;;;30.60;6.90;;;;;;;17.71;100.00;101330.77;105699;1258;66918;-53
2023/05/14 05:15:58;;;;;;;13.70;6.30;;;;;;;17.80;100.00;101326.63;105683;1255;75152;-53
2023/05/14 05:18:25;;;;;;;25.90;6.70;;;;;;;17.87;100.00;101322.73;105710;1259;61679;-52
2023/05/14 05:20:52;;;;;;;34.50;6.80;;;;;;;17.91;100.00;101327.80;105673;1254;62054;-53
2023/05/14 05:23:19;;;;;;;27.60;5.90;;;;;;;17.97;100.00;101335.81;105737;1258;76288;-53
2023/05/14 05:25:46;;;;;;;18.90;5.00;;;;;;;18.05;100.00;101330.33;105656;1254;65285;-52
2023/05/14 05:28:13;;;;;;;16.80;4.70;;;;;;;18.17;100.00;101327.27;105681;1259;75361;-52
2023/05/14 05:30:40;;;;;;;10.50;4.30;;;;;;;18.31;100.00;101320.66;105662;1254;62873;-52
2023/05/14 05:33:07;;;;;;;11.30;4.30;;;;;;;18.42;96.44;101325.31;105687;1255;61927;-50
2023/05/14 05:35:34;;;;;;;15.30;4.30;;;;;;;18.48;91.07;101332.96;105653;1259;75579;-51
2023/05/14 05:38:02;;;;;;;7.50;3.80;;;;;;;18.50;86.74;101332.35;105679;1254;65587;-51
2023/05/14 05:40:29;;;;;;;7.70;4.20;;;;;;;18.54;81.86;101335.52;105730;1254;74019;-51
2023/05/14 05:42:56;;;;;;;7.80;3.70;;;;;;;18.57;73.61;101313.58;105630;1260;63145;-51
2023/05/14 05:45:23;;;;;;;6.50;3.80;;;;;;;18.55;75.38;101349.64;105672;1258;62493;-52
2023/05/14 05:47:50;;;;;;;8.70;3.70;;;;;;;18.59;74.98;101358.06;105687;1260;76312;-50
2023/05/14 05:51:43;;;;;;;6.20;3.80;;;;;;;18.82;75.98;101360.86;102687;1292;600591;-51
2023/05/14 05:54:10;;;;;;;3.90;3.30;;;;;;;19.05;73.04;101348.45;104828;1267;62427;-51
2023/05/14 05:56:37;;;;;;;4.70;3.10;;;;;;;19.33;70.17;101332.45;105014;1269;61700;-53
2023/05/14 05:59:04;;;;;;;7.80;3.50;;;;;;;19.59;71.93;101352.73;105048;1267;74423;-52
2023/05/14 06:01:31;;;;;;;10.90;2.90;;;;;;;19.86;68.08;101307.12;104829;1267;68381;-52
2023/05/14 06:03:58;;;;;;;11.00;2.80;;;;;;;20.01;63.34;101273.73;104982;1263;74932;-52
2023/05/14 06:06:25;;;;;;;3.60;3.00;;;;;;;20.11;61.90;101274.88;104937;1263;239670;-51
2023/05/14 06:08:52;;;;;;;9.80;2.90;;;;;;;20.21;60.65;101271.60;105339;1260;62184;-52
2023/05/14 06:11:20;;;;;;;5.20;3.00;;;;;;;20.33;59.03;101245.30;105269;1261;74703;-53
2023/05/14 06:13:47;;;;;;;5.20;2.70;;;;;;;20.34;57.86;101233.50;105314;1260;67181;-52
2023/05/14 06:16:15;;;;;;;4.00;2.70;;;;;;;20.26;56.50;101206.02;105258;1264;74065;-52
2023/05/14 06:18:42;;;;;;;5.60;3.00;;;;;;;20.20;55.39;101184.91;105256;1260;61961;-51
2023/05/14 06:21:09;;;;;;;7.90;3.00;;;;;;;20.16;56.13;101261.85;105234;1263;62754;-51
2023/05/14 06:23:36;;;;;;;8.90;3.10;;;;;;;20.21;55.80;101247.40;105239;1266;75835;-51
2023/05/14 06:26:03;;;;;;;4.50;2.80;;;;;;;20.29;54.69;101206.77;105220;1266;66721;-51
2023/05/14 06:28:30;;;;;;;5.50;3.20;;;;;;;20.39;55.43;101259.39;105235;1264;74443;-51
2023/05/14 06:30:56;;;;;;;11.40;3.20;;;;;;;20.49;54.37;101211.41;105231;1261;61873;-50
2023/05/14 06:33:29;;;;;;;6.00;3.10;;;;;;;20.50;55.00;101262.39;105215;1260;62954;-51
2023/05/14 06:35:58;;;;;;;4.50;2.70;;;;;;;20.62;54.30;101214.30;105296;1260;74505;-51
2023/05/14 06:38:25;;;;;;;5.10;3.20;;;;;;;20.78;52.97;101150.23;105262;1263;67494;-51
2023/05/14 06:40:52;;;;;;;3.40;3.00;;;;;;;20.83;53.11;101175.77;105296;1260;75132;-51
2023/05/14 06:43:19;;;;;;;6.70;3.00;;;;;;;20.89;52.03;101125.98;105214;1266;62146;-51
2023/05/14 06:45:51;;;;;;;8.00;3.00;;;;;;;20.92;51.19;101080.42;105245;1261;62590;-50
2023/05/14 06:48:18;;;;;;;6.10;3.30;;;;;;;20.85;50.56;101059.07;105326;1264;75446;-51
2023/05/14 06:50:46;;;;;;;7.60;3.40;;;;;;;20.77;51.42;101146.95;105622;1256;66616;-51
2023/05/14 06:53:14;;;;;;;5.10;3.40;;;;;;;20.83;51.93;101201.73;105608;1260;75602;-50
2023/05/14 06:55:41;;;;;;;3.50;3.20;;;;;;;20.96;51.56;101171.10;105597;1263;61679;-51
2023/05/14 06:58:08;;;;;;;11.60;3.30;;;;;;;21.10;51.33;101160.02;105550;1257;62801;-50
2023/05/14 07:00:35;;;;;;;7.50;3.10;;;;;;;21.20;49.62;101042.61;105565;1258;74730;-50
2023/05/14 07:03:02;;;;;;;5.20;3.00;;;;;;;21.18;49.47;101043.46;105617;1263;67106;-51
2023/05/14 07:05:29;;;;;;;4.20;3.00;;;;;;;21.14;48.86;101001.92;105549;1256;75167;-50
2023/05/14 07:07:56;;;;;;;11.50;3.40;;;;;;;21.11;49.06;101038.94;105543;1257;62092;-51
2023/05/14 07:10:23;;;;;;;6.50;3.30;;;;;;;21.09;50.05;101144.64;105551;1263;62988;-50
2023/05/14 07:12:51;;;;;;;9.90;3.60;;;;;;;21.23;49.54;101097.93;105572;1258;74409;-50
2023/05/14 07:15:18;;;;;;;3.60;3.20;;;;;;;21.41;49.08;101056.63;105563;1263;67245;-51
2023/05/14 07:17:45;;;;;;;4.80;2.80;;;;;;;21.56;49.24;101075.63;105561;1257;74117;-51
2023/05/14 07:20:12;;;;;;;4.60;2.80;;;;;;;21.78;48.13;100979.10;105556;1263;61716;-52
2023/05/14 07:22:39;;;;;;;11.20;3.00;;;;;;;21.85;48.21;100982.06;105575;1257;61753;-51
2023/05/14 07:25:06;;;;;;;13.20;2.80;;;;;;;21.91;47.49;100920.18;105524;1263;75379;-51
2023/05/14 07:27:33;;;;;;;4.50;2.70;;;;;;;21.94;47.78;100956.39;105648;1257;66993;-51
2023/05/14 07:30:00;;;;;;;3.50;2.50;;;;;;;22.07;46.98;100903.45;105548;1262;75267;-52
2023/05/14 07:32:27;;;;;;;4.00;2.70;;;;;;;22.20;46.68;100879.70;105543;1257;63459;-52
2023/05/14 07:34:54;;;;;;;6.90;3.00;;;;;;;22.27;45.84;100806.86;105547;1262;62171;-52
2023/05/14 07:37:21;;;;;;;3.30;2.60;;;;;;;22.26;46.32;100847.30;105601;1261;75464;-52
2023/05/14 07:39:50;;;;;;;9.00;2.70;;;;;;;22.34;45.86;100834.33;105608;1262;66038;-51
2023/05/14 07:42:17;;;;;;;9.60;2.80;;;;;;;22.38;46.65;100932.88;105554;1263;75230;-56
2023/05/14 07:45:01;;;;;;;9.40;2.90;;;;;;;22.64;46.06;100880.01;105591;1257;61461;-51
2023/05/14 07:47:28;;;;;;;13.30;2.60;;;;;;;22.79;45.86;100852.48;105574;1257;62993;-51
2023/05/14 07:49:56;;;;;;;10.30;2.80;;;;;;;22.97;45.86;100845.36;105540;1257;74703;-51
2023/05/14 07:52:23;;;;;;;3.20;2.60;;;;;;;23.18;45.14;100794.91;105590;1258;66723;-52
2023/05/14 07:54:50;;;;;;;7.20;2.60;;;;;;;23.27;44.44;100717.78;105561;1258;74560;-52
2023/05/14 07:57:18;;;;;;;4.40;2.30;;;;;;;23.18;44.27;100673.80;105585;1257;64015;-59
2023/05/14 07:59:46;;;;;;;13.60;2.80;;;;;;;23.02;44.45;100721.36;105577;1263;61986;-52
2023/05/14 08:02:15;;;;;;;4.30;2.70;;;;;;;23.00;45.12;100817.91;105484;1257;75479;-50
2023/05/14 08:04:43;;;;;;;11.30;2.60;;;;;;;23.20;45.77;100901.10;105597;1257;66212;-55
2023/05/14 08:07:10;;;;;;;10.10;2.40;;;;;;;23.39;45.22;100843.73;105642;1263;74979;-55
2023/05/14 08:09:37;;;;;;;4.90;3.00;;;;;;;23.47;45.42;100860.10;105541;1256;62313;-54
2023/05/14 08:12:04;;;;;;;8.80;2.60;;;;;;;23.60;44.72;100792.34;105560;1258;62453;-53
2023/05/14 08:14:32;;;;;;;7.70;2.70;;;;;;;23.82;44.43;100752.42;105598;1263;75522;-52
2023/05/14 08:16:59;;;;;;;7.70;3.10;;;;;;;24.03;44.11;100710.15;105582;1258;67509;-51
2023/05/14 08:19:26;;;;;;;7.70;2.50;;;;;;;24.19;42.89;100572.87;105576;1258;73825;-52
2023/05/14 08:21:53;;;;;;;7.30;2.70;;;;;;;24.21;42.67;100535.72;105595;1257;61327;-51
2023/05/14 08:24:20;;;;;;;6.00;2.60;;;;;;;24.15;42.44;100539.73;105579;1258;62579;-55
2023/05/14 08:26:47;;;;;;;16.50;2.60;;;;;;;24.15;43.20;100623.84;105558;1257;74515;-52
2023/05/14 08:29:14;;;;;;;6.70;2.50;;;;;;;24.25;42.76;100609.70;105559;1257;67778;-51
2023/05/14 08:31:42;;;;;;;7.90;2.10;;;;;;;24.25;40.55;100321.93;105594;1257;74245;-53
2023/05/14 08:34:09;;;;;;;5.70;2.10;;;;;;;24.30;40.46;100270.81;105558;1258;62096;-55
2023/05/14 08:36:37;;;;;;;5.10;2.00;;;;;;;24.42;40.59;100325.20;105824;1253;62782;-51
2023/05/14 08:39:06;;;;;;;8.70;2.90;;;;;;;24.54;40.07;100282.64;105848;1254;74513;-54
2023/05/14 08:41:34;;;;;;;6.00;1.80;;;;;;;24.56;37.80;99999.30;105904;1257;66561;-51
2023/05/14 08:44:14;;;;;;;2.70;1.50;;;;;;;24.55;36.55;99814.58;105848;1258;75454;-51
2023/05/14 08:46:40;;;;;;;4.40;1.90;;;;;;;24.37;35.81;99706.65;105877;1254;62795;-56
2023/05/14 08:49:21;;;;;;;2.50;1.70;;;;;;;24.14;34.71;99568.79;105940;1256;61706;-51
2023/05/14 08:51:48;;;;;;;2.30;1.70;;;;;;;24.04;34.18;99498.78;105903;1257;75689;-51
2023/05/14 08:54:18;;;;;;;8.40;1.80;;;;;;;24.02;34.92;99573.15;105673;1260;67449;-51
2023/05/14 08:56:45;;;;;;;6.00;1.90;;;;;;;24.13;34.03;99471.73;105899;1255;74914;-51
2023/05/14 08:59:12;;;;;;;2.70;1.60;;;;;;;24.20;33.51;99415.59;105799;1254;62677;-51
2023/05/14 09:01:43;;;;;;;9.00;1.40;;;;;;;24.19;33.59;99383.05;105843;1257;61698;-52
2023/05/14 09:04:10;;;;;;;10.90;1.70;;;;;;;24.39;33.75;99455.28;105896;1255;75481;-52
2023/05/14 09:06:37;;;;;;;9.30;1.50;;;;;;;24.48;32.40;99250.98;105713;1257;65923;-52
2023/05/14 09:09:04;;;;;;;1.60;1.40;;;;;;;24.39;33.79;99406.09;105672;1259;75290;-52
2023/05/14 09:11:31;;;;;;;9.40;1.40;;;;;;;24.43;33.11;99364.91;105864;1254;61407;-52
2023/05/14 09:13:58;;;;;;;2.10;1.60;;;;;;;24.40;32.53;99286.66;105845;1255;63272;-51
2023/05/14 09:16:25;;;;;;;3.30;1.60;;;;;;;24.34;33.01;99307.39;105855;1257;74277;-51
2023/05/14 09:18:53;;;;;;;5.80;1.60;;;;;;;24.29;34.32;99460.95;105691;1254;65524;-51
2023/05/14 09:21:20;;;;;;;3.30;1.80;;;;;;;24.36;34.00;99499.40;105868;1255;74005;-51
2023/05/14 09:23:48;;;;;;;11.60;1.90;;;;;;;24.47;32.76;99346.64;105671;1255;62981;-51
2023/05/14 09:26:16;;;;;;;4.50;2.10;;;;;;;24.63;33.34;99393.62;105757;1255;62537;-50
2023/05/14 09:28:43;;;;;;;6.40;1.70;;;;;;;24.92;33.50;99417.77;105921;1254;74380;-51
2023/05/14 09:31:10;;;;;;;4.50;1.70;;;;;;;25.18;33.39;99424.65;105846;1257;67109;-52
2023/05/14 09:33:38;;;;;;;7.30;1.50;;;;;;;25.39;32.00;99242.59;105880;1257;75561;-52
2023/05/14 09:36:06;;;;;;;7.10;1.80;;;;;;;25.44;30.23;98955.33;105708;1252;63780;-51
2023/05/14 09:38:33;;;;;;;3.40;1.70;;;;;;;25.36;30.01;98879.20;105858;1257;63049;-52
2023/05/14 09:41:00;;;;;;;10.10;1.70;;;;;;;25.31;30.51;98942.48;105848;1252;75265;-52
2023/05/14 09:43:27;;;;;;;2.90;1.50;;;;;;;25.24;31.03;98991.67;105868;1253;65603;-52
2023/05/14 09:45:54;;;;;;;4.50;1.50;;;;;;;25.27;30.76;98965.38;105864;1257;75215;-51
2023/05/14 09:48:21;;;;;;;6.50;1.60;;;;;;;25.46;32.74;99214.40;105909;1263;62046;-52
2023/05/14 09:50:50;;;;;;;4.30;1.90;;;;;;;25.85;33.09;99314.80;105876;1252;61907;-51
2023/05/14 09:53:17;;;;;;;12.70;1.60;;;;;;;26.35;30.92;99043.77;105886;1256;75376;-51
2023/05/14 09:55:44;;;;;;;5.40;1.60;;;;;;;26.54;30.79;98988.16;105841;1258;67102;-53
2023/05/14 09:58:13;;;;;;;6.00;1.60;;;;;;;26.50;30.18;98882.46;105835;1256;74891;-51
2023/05/14 10:00:44;;;;;;;7.50;1.40;;;;;;;26.43;31.13;98998.31;105764;1255;63371;-53
2023/05/14 10:03:13;;;;;;;1.40;1.30;;;;;;;26.50;30.81;98988.52;105878;1256;61854;-54
2023/05/14 10:05:41;;;;;;;2.80;1.70;;;;;;;26.45;30.78;98986.72;105887;1257;76067;-52
2023/05/14 10:08:13;;;;;;;11.40;1.70;;;;;;;26.46;30.60;98962.64;105708;1254;66614;-51
2023/05/14 10:10:40;;;;;;;3.80;1.70;;;;;;;26.48;31.36;99059.31;105977;1258;74421;-52
2023/05/14 10:13:12;;;;;;;17.50;1.80;;;;;;;26.64;30.62;98972.02;105831;1254;62443;-52
2023/05/14 10:15:42;;;;;;;5.90;1.50;;;;;;;26.78;29.47;98827.02;105929;1256;62352;-52
2023/05/14 10:18:11;;;;;;;4.50;1.60;;;;;;;26.75;29.92;98838.86;105924;1257;75607;-51
2023/05/14 10:20:39;;;;;;;2.30;1.60;;;;;;;26.76;30.43;98896.77;105743;1260;66204;-50
2023/05/14 10:23:06;;;;;;;10.10;1.50;;;;;;;26.66;30.45;98909.20;105906;1255;75228;-53
2023/05/14 10:25:34;;;;;;;3.30;1.50;;;;;;;26.57;29.26;98789.64;105861;1256;60997;-52
2023/05/14 10:28:01;;;;;;;2.50;1.50;;;;;;;26.36;29.66;98789.73;105824;1254;63157;-52
2023/05/14 10:30:28;;;;;;;2.60;1.70;;;;;;;26.25;29.91;98853.09;105858;1257;75990;-53
2023/05/14 10:33:08;;;;;;;15.50;3.10;;;;;;;26.26;30.31;98892.13;105834;1256;67681;-51
2023/05/14 10:36:04;;;;;;;7.50;1.90;;;;;;;26.31;29.34;98809.06;105926;1256;74290;-52
2023/05/14 10:38:35;;;;;;;4.70;1.90;;;;;;;26.02;29.45;98796.30;105828;1257;62687;-52
2023/05/14 10:41:16;;;;;;;15.70;2.40;;;;;;;25.70;29.64;98813.37;105904;1259;62538;-53
2023/05/14 10:43:43;;;;;;;7.60;1.90;;;;;;;25.52;29.76;98859.92;105913;1257;75979;-52
2023/05/14 10:46:12;;;;;;;8.80;1.60;;;;;;;25.39;29.72;98845.20;105862;1257;66963;-52
2023/05/14 10:48:42;;;;;;;3.70;1.40;;;;;;;25.22;30.85;98962.02;105860;1257;74136;-52
2023/05/14 10:51:10;;;;;;;3.00;1.90;;;;;;;25.24;31.32;99044.45;105671;1259;61855;-51
2023/05/14 10:53:39;;;;;;;1.70;1.50;;;;;;;25.41;31.07;99076.42;105727;1259;62834;-52
2023/05/14 10:56:10;;;;;;;5.70;1.70;;;;;;;25.57;29.64;98883.23;105721;1254;76472;-51
2023/05/14 10:58:42;;;;;;;7.80;2.00;;;;;;;25.47;30.10;98936.20;105711;1254;65432;-52
2023/05/14 11:01:11;;;;;;;5.50;1.50;;;;;;;25.53;30.21;98958.31;105696;1260;74263;-52
2023/05/14 11:03:45;;;;;;;2.20;1.50;;;;;;;25.49;29.84;98912.65;105700;1259;63222;-51
2023/05/14 11:06:14;;;;;;;2.00;1.60;;;;;;;25.40;28.96;98806.81;105724;1254;63173;-52
2023/05/14 11:08:41;;;;;;;6.10;1.70;;;;;;;25.26;30.01;98904.98;105721;1255;76324;-51
2023/05/14 11:11:09;;;;;;;5.90;1.90;;;;;;;25.34;30.20;98955.90;105729;1256;67966;-51
2023/05/14 11:13:36;;;;;;;6.70;2.10;;;;;;;25.42;29.37;98857.46;105710;1260;75213;-51
2023/05/14 11:16:03;;;;;;;5.30;2.00;;;;;;;25.43;30.36;98937.83;105823;1255;61339;-50
2023/05/14 11:18:53;;;;;;;5.00;1.70;;;;;;;25.55;29.95;98902.19;105713;1259;62113;-52